createdAt,value
2023-04-17T00:02:57.601Z,44.28
2023-04-17T00:08:02.467Z,51.65
2023-04-17T00:13:04.468Z,52.58
2023-04-17T00:18:06.435Z,48.60
2023-04-17T00:23:08.304Z,47.22
2023-04-17T00:28:10.653Z,50.08
2023-04-17T00:33:12.539Z,47.25
2023-04-17T00:38:14.354Z,48.88
2023-04-17T00:43:16.117Z,45.65
2023-04-17T00:48:19.610Z,46.10
2023-04-17T00:53:21.452Z,51.88
2023-04-17T00:58:25.537Z,46.10
2023-04-17T01:03:32.504Z,41.33
2023-04-17T01:08:41.966Z,51.30
2023-04-17T01:13:48.517Z,58.97
2023-04-17T01:18:50.680Z,56.97
2023-04-17T01:23:53.446Z,58.95
2023-04-17T01:28:58.128Z,52.65
2023-04-17T01:34:00.688Z,50.85
2023-04-17T01:39:02.450Z,55.65
2023-04-17T01:44:04.426Z,53.60
2023-04-17T01:49:06.450Z,47.55
2023-04-17T01:54:08.518Z,53.17
2023-04-17T01:59:11.022Z,51.97
2023-04-17T02:04:13.266Z,58.28
2023-04-17T02:09:15.400Z,52.42
2023-04-17T02:14:18.444Z,55.97
2023-04-17T02:19:20.315Z,53.58
2023-04-17T02:24:22.074Z,53.13
2023-04-17T02:29:23.955Z,50.20
2023-04-17T02:34:26.441Z,55.60
2023-04-17T02:39:28.224Z,59.90
2023-04-17T02:44:30.017Z,62.75
2023-04-17T02:49:31.951Z,65.55
2023-04-17T02:54:34.020Z,64.68
2023-04-17T02:59:36.023Z,64.28
2023-04-17T03:04:41.388Z,60.72
2023-04-17T03:09:45.862Z,59.08
2023-04-17T03:14:47.619Z,59.80
2023-04-17T03:19:49.392Z,61.78
2023-04-17T03:24:51.253Z,60.03
2023-04-17T03:29:54.880Z,56.45
2023-04-17T03:34:56.609Z,72.95
2023-04-17T03:39:58.650Z,69.40
2023-04-17T03:45:00.628Z,58.53
2023-04-17T03:50:02.490Z,57.88
2023-04-17T03:55:04.676Z,49.15
2023-04-17T04:00:10.512Z,51.55
2023-04-17T04:05:12.541Z,54.38
2023-04-17T04:10:14.607Z,53.15
2023-04-17T04:15:16.371Z,53.42
2023-04-17T04:20:18.286Z,50.38
2023-04-17T04:25:20.432Z,50.83
2023-04-17T04:30:25.755Z,49.75
2023-04-17T04:35:30.321Z,56.70
2023-04-17T04:40:38.250Z,53.70
2023-04-17T04:45:40.239Z,63.17
2023-04-17T04:50:42.276Z,53.22
2023-04-17T04:55:44.086Z,48.78
2023-04-17T05:00:46.027Z,50.42
2023-04-17T05:05:50.810Z,43.83
2023-04-17T05:10:52.615Z,46.50
2023-04-17T05:15:54.592Z,44.95
2023-04-17T05:20:56.411Z,38.75
2023-04-17T05:25:58.730Z,41.85
2023-04-17T05:31:01.665Z,48.22
2023-04-17T05:36:03.607Z,40.65
2023-04-17T05:41:07.566Z,42.20
2023-04-17T05:46:09.448Z,48.90
2023-04-17T05:51:11.421Z,49.03
2023-04-17T05:56:13.213Z,45.78
2023-04-17T06:01:17.711Z,45.22
2023-04-17T06:06:19.616Z,44.45
2023-04-17T06:11:22.015Z,47.80
2023-04-17T06:16:24.095Z,43.33
2023-04-17T06:21:26.833Z,47.55
2023-04-17T06:26:28.746Z,46.15
2023-04-17T06:31:30.666Z,39.17
2023-04-17T06:36:33.359Z,47.97
2023-04-17T06:41:35.398Z,45.22
2023-04-17T06:46:37.381Z,45.58
2023-04-17T06:51:39.307Z,42.65
2023-04-17T06:56:41.156Z,38.90
2023-04-17T07:01:42.935Z,37.47
2023-04-17T07:06:44.695Z,38.75
2023-04-17T07:11:46.617Z,37.70
2023-04-17T07:16:48.810Z,44.83
2023-04-17T07:21:50.626Z,42.55
2023-04-17T07:26:52.426Z,44.53
2023-04-17T07:31:54.260Z,42.13
2023-04-17T07:36:56.235Z,38.47
2023-04-17T07:41:58.072Z,44.47
2023-04-17T07:46:59.890Z,40.47
2023-04-17T07:52:01.709Z,43.60
2023-04-17T07:57:03.616Z,47.47
2023-04-17T08:02:05.888Z,52.55
2023-04-17T08:07:10.641Z,46.20
2023-04-17T08:12:12.569Z,46.85
2023-04-17T08:17:15.201Z,45.72
2023-04-17T08:22:17.275Z,46.97
2023-04-17T08:27:19.044Z,44.45
2023-04-17T08:32:21.487Z,49.10
2023-04-17T08:37:23.333Z,51.10
2023-04-17T08:42:25.957Z,41.78
2023-04-17T08:47:28.797Z,45.60
2023-04-17T08:52:30.830Z,45.97
2023-04-17T08:57:32.632Z,52.30
2023-04-17T09:02:52.493Z,48.85
2023-04-17T09:08:08.489Z,47.20
2023-04-17T09:13:14.566Z,41.08
2023-04-17T09:18:31.342Z,39.58
2023-04-17T09:23:56.222Z,46.70
2023-04-17T09:29:04.003Z,44.22
2023-04-17T09:34:13.726Z,39.83
2023-04-17T09:39:20.967Z,39.35
2023-04-17T09:44:28.249Z,38.42
2023-04-17T09:49:42.410Z,40.42
2023-04-17T09:54:47.430Z,36.28
2023-04-17T09:59:49.441Z,41.42
2023-04-17T10:04:51.402Z,38.10
2023-04-17T10:09:53.154Z,40.15
2023-04-17T10:14:55.054Z,40.80
2023-04-17T10:20:23.313Z,42.40
2023-04-17T10:25:26.852Z,38.28
2023-04-17T10:30:55.506Z,39.42
2023-04-17T10:35:57.595Z,39.47
2023-04-17T10:41:08.972Z,41.63
2023-04-17T10:46:13.104Z,40.60
2023-04-17T10:51:24.092Z,38.00
2023-04-17T10:56:58.502Z,38.83
2023-04-17T11:02:01.679Z,41.05
2023-04-17T11:07:03.710Z,35.50
2023-04-17T11:12:06.464Z,40.42
2023-04-17T11:17:09.591Z,37.90
2023-04-17T11:22:11.573Z,40.83
2023-04-17T11:27:14.536Z,38.95
2023-04-17T11:32:16.359Z,36.60
2023-04-17T11:37:18.092Z,38.05
2023-04-17T11:42:27.468Z,39.33
2023-04-17T11:47:29.700Z,37.80
2023-04-17T11:52:32.488Z,36.42
2023-04-17T11:57:43.333Z,33.15
2023-04-17T12:02:45.229Z,30.02
2023-04-17T12:07:47.131Z,36.55
2023-04-17T12:12:49.198Z,33.78
2023-04-17T12:17:51.005Z,32.38
2023-04-17T12:22:52.806Z,34.78
2023-04-17T12:27:56.629Z,34.90
2023-04-17T12:32:58.534Z,38.08
2023-04-17T12:38:00.959Z,34.40
2023-04-17T12:43:04.182Z,36.92
2023-04-17T12:48:07.407Z,34.92
2023-04-17T12:53:11.481Z,39.20
2023-04-17T12:58:13.614Z,32.67
2023-04-17T13:03:15.591Z,36.30
2023-04-17T13:08:17.412Z,37.90
2023-04-17T13:13:21.760Z,34.25
2023-04-17T13:18:23.821Z,27.42
2023-04-17T13:23:25.603Z,38.15
2023-04-17T13:28:27.366Z,33.78
2023-04-17T13:33:29.127Z,35.88
2023-04-17T13:38:30.927Z,36.13
2023-04-17T13:43:32.678Z,33.75
2023-04-17T13:48:34.722Z,34.53
2023-04-17T13:53:36.811Z,28.98
2023-04-17T13:58:40.539Z,34.92
2023-04-17T14:03:44.694Z,31.65
2023-04-17T14:08:48.794Z,29.13
2023-04-17T14:13:51.504Z,28.30
2023-04-17T14:18:53.479Z,30.23
2023-04-17T14:23:57.109Z,27.35
2023-04-17T14:28:58.961Z,28.33
2023-04-17T14:34:00.827Z,25.35
2023-04-17T14:39:02.748Z,24.73
2023-04-17T14:44:04.798Z,21.88
2023-04-17T14:49:06.548Z,22.30
2023-04-17T14:54:08.590Z,25.17
2023-04-17T14:59:11.109Z,24.42
2023-04-17T15:04:13.337Z,24.27
2023-04-17T15:09:15.789Z,20.63
2023-04-17T15:14:17.574Z,18.85
2023-04-17T15:19:19.361Z,17.30
2023-04-17T15:24:21.192Z,20.40
2023-04-17T15:29:23.151Z,20.35
2023-04-17T15:34:25.064Z,21.45
2023-04-17T15:39:26.885Z,26.63
2023-04-17T15:44:29.296Z,28.38
2023-04-17T15:49:31.102Z,27.35
2023-04-17T15:54:33.223Z,26.85
2023-04-17T15:59:35.127Z,20.42
2023-04-17T16:04:37.325Z,26.33
2023-04-17T16:09:40.525Z,21.70
2023-04-17T16:14:42.755Z,23.75
2023-04-17T16:19:44.536Z,20.60
2023-04-17T16:24:46.702Z,18.70
2023-04-17T16:29:48.550Z,15.50
2023-04-17T16:34:50.656Z,17.58
2023-04-17T16:39:52.646Z,15.88
2023-04-17T16:44:54.395Z,18.17
2023-04-17T16:49:56.497Z,13.63
2023-04-17T16:54:59.328Z,13.52
2023-04-17T17:00:01.069Z,16.58
2023-04-17T17:05:03.773Z,13.27
2023-04-17T17:10:06.232Z,15.50
2023-04-17T17:15:08.263Z,17.08
2023-04-17T17:20:11.446Z,15.38
2023-04-17T17:25:13.533Z,16.27
2023-04-17T17:30:15.659Z,13.32
2023-04-17T17:35:17.550Z,14.68
2023-04-17T17:40:19.443Z,17.55
2023-04-17T17:45:21.377Z,17.67
2023-04-17T17:50:23.422Z,17.33
2023-04-17T17:55:25.191Z,15.13
2023-04-17T18:00:27.210Z,14.55
2023-04-17T18:05:29.050Z,15.05
2023-04-17T18:10:30.804Z,16.35
2023-04-17T18:15:33.026Z,13.75
2023-04-17T18:20:39.396Z,17.15
2023-04-17T18:25:41.272Z,17.08
2023-04-17T18:30:43.215Z,17.55
2023-04-17T18:35:44.995Z,16.73
2023-04-17T18:40:46.772Z,17.40
2023-04-17T18:45:49.663Z,19.67
2023-04-17T18:50:51.638Z,13.02
2023-04-17T18:55:53.557Z,16.50
2023-04-17T19:00:55.510Z,16.88
2023-04-17T19:05:57.287Z,17.50
2023-04-17T19:10:59.286Z,19.42
2023-04-17T19:16:01.397Z,13.63
2023-04-17T19:21:03.293Z,20.45
2023-04-17T19:26:05.292Z,17.52
2023-04-17T19:31:07.268Z,17.33
2023-04-17T19:36:09.144Z,18.70
2023-04-17T19:41:17.860Z,18.33
2023-04-17T19:46:21.419Z,14.95
2023-04-17T19:51:23.415Z,30.70
2023-04-17T19:56:25.755Z,17.80
2023-04-17T20:01:27.790Z,17.02
2023-04-17T20:06:29.672Z,18.98
2023-04-17T20:11:31.586Z,17.00
2023-04-17T20:16:33.423Z,18.05
2023-04-17T20:21:35.263Z,17.75
2023-04-17T20:26:38.347Z,20.88
2023-04-17T20:31:40.435Z,17.63
2023-04-17T20:36:42.330Z,18.75
2023-04-17T20:41:45.236Z,22.65
2023-04-17T20:46:47.130Z,20.55
2023-04-17T20:51:49.197Z,21.88
2023-04-17T20:56:50.941Z,22.92
2023-04-17T21:01:52.818Z,19.77
2023-04-17T21:06:55.462Z,21.38
2023-04-17T21:11:57.293Z,29.50
2023-04-17T21:16:59.354Z,24.27
2023-04-17T21:22:03.729Z,19.88
2023-04-17T21:27:05.653Z,21.70
2023-04-17T21:32:07.693Z,29.38
2023-04-17T21:37:09.574Z,25.38
2023-04-17T21:42:11.340Z,23.98
2023-04-17T21:47:14.595Z,25.38
2023-04-17T21:52:17.009Z,28.30
2023-04-17T21:57:18.945Z,25.30
2023-04-17T22:02:21.048Z,28.85
2023-04-17T22:07:23.037Z,26.42
2023-04-17T22:12:24.824Z,27.05
2023-04-17T22:17:26.725Z,28.15
2023-04-17T22:22:28.755Z,27.63
2023-04-17T22:27:30.516Z,28.50
2023-04-17T22:32:34.513Z,26.70
2023-04-17T22:37:36.323Z,28.77
2023-04-17T22:42:38.118Z,31.48
2023-04-17T22:47:39.854Z,28.77
2023-04-17T22:52:41.707Z,27.40
2023-04-17T22:57:43.503Z,32.65
2023-04-17T23:02:45.391Z,28.95
2023-04-17T23:07:47.544Z,25.85
2023-04-17T23:12:49.311Z,26.33
2023-04-17T23:17:51.089Z,32.85
2023-04-17T23:22:53.175Z,35.13
2023-04-17T23:27:54.902Z,25.65
2023-04-17T23:32:57.720Z,26.27
2023-04-17T23:37:59.499Z,28.90
2023-04-17T23:43:01.354Z,31.80
2023-04-17T23:48:03.211Z,26.70
2023-04-17T23:53:05.101Z,31.40
2023-04-17T23:58:07.019Z,26.42
